sensor_id;sensor_type;location;lat;lon;timestamp;temperature;humidity
1359;DHT22;673;48.098;14.422;2023-03-08T00:02:08;4.30;98.70
1359;DHT22;673;48.098;14.422;2023-03-08T00:04:35;4.40;98.60
1359;DHT22;673;48.098;14.422;2023-03-08T00:07:02;4.60;98.50
1359;DHT22;673;48.098;14.422;2023-03-08T00:09:29;4.60;98.50
1359;DHT22;673;48.098;14.422;2023-03-08T00:11:56;4.50;99.20
1359;DHT22;673;48.098;14.422;2023-03-08T00:14:23;4.60;99.00
1359;DHT22;673;48.098;14.422;2023-03-08T00:16:50;4.60;99.30
1359;DHT22;673;48.098;14.422;2023-03-08T00:19:18;4.50;99.50
1359;DHT22;673;48.098;14.422;2023-03-08T00:21:45;4.50;99.10
1359;DHT22;673;48.098;14.422;2023-03-08T00:24:13;4.50;99.30
1359;DHT22;673;48.098;14.422;2023-03-08T00:26:41;4.60;99.30
1359;DHT22;673;48.098;14.422;2023-03-08T00:29:08;4.60;99.30
1359;DHT22;673;48.098;14.422;2023-03-08T00:31:35;4.60;99.70
1359;DHT22;673;48.098;14.422;2023-03-08T00:34:03;4.50;99.90
1359;DHT22;673;48.098;14.422;2023-03-08T00:36:31;4.50;99.90
1359;DHT22;673;48.098;14.422;2023-03-08T00:38:58;4.40;99.90
1359;DHT22;673;48.098;14.422;2023-03-08T00:41:25;4.20;99.90
1359;DHT22;673;48.098;14.422;2023-03-08T00:43:52;4.10;99.90
1359;DHT22;673;48.098;14.422;2023-03-08T00:46:19;4.10;99.90
1359;DHT22;673;48.098;14.422;2023-03-08T00:48:46;4.00;99.90
1359;DHT22;673;48.098;14.422;2023-03-08T00:51:14;4.00;99.90
1359;DHT22;673;48.098;14.422;2023-03-08T00:53:43;3.90;99.90
1359;DHT22;673;48.098;14.422;2023-03-08T00:56:10;3.90;99.90
1359;DHT22;673;48.098;14.422;2023-03-08T00:58:39;3.90;99.90
1359;DHT22;673;48.098;14.422;2023-03-08T01:01:07;3.80;99.90
1359;DHT22;673;48.098;14.422;2023-03-08T01:03:34;3.80;99.90
1359;DHT22;673;48.098;14.422;2023-03-08T01:06:05;3.80;99.90
1359;DHT22;673;48.098;14.422;2023-03-08T01:08:32;3.80;99.90
1359;DHT22;673;48.098;14.422;2023-03-08T01:11:01;3.80;99.90
1359;DHT22;673;48.098;14.422;2023-03-08T01:13:30;3.80;99.90
1359;DHT22;673;48.098;14.422;2023-03-08T01:15:58;3.80;99.90
1359;DHT22;673;48.098;14.422;2023-03-08T01:18:25;3.70;99.90
1359;DHT22;673;48.098;14.422;2023-03-08T01:20:56;3.70;99.90
1359;DHT22;673;48.098;14.422;2023-03-08T01:23:23;3.70;99.90
1359;DHT22;673;48.098;14.422;2023-03-08T01:25:57;3.70;99.90
1359;DHT22;673;48.098;14.422;2023-03-08T01:28:25;3.70;99.90
1359;DHT22;673;48.098;14.422;2023-03-08T01:30:52;3.70;99.90
1359;DHT22;673;48.098;14.422;2023-03-08T01:33:19;3.70;99.90
1359;DHT22;673;48.098;14.422;2023-03-08T01:35:47;3.60;99.90
1359;DHT22;673;48.098;14.422;2023-03-08T01:38:14;3.60;99.90
1359;DHT22;673;48.098;14.422;2023-03-08T01:40:41;3.60;99.90
1359;DHT22;673;48.098;14.422;2023-03-08T01:43:21;3.60;99.90
1359;DHT22;673;48.098;14.422;2023-03-08T01:46:10;3.60;99.90
1359;DHT22;673;48.098;14.422;2023-03-08T01:48:42;3.60;99.90
1359;DHT22;673;48.098;14.422;2023-03-08T01:51:12;3.60;99.90
1359;DHT22;673;48.098;14.422;2023-03-08T01:53:41;3.60;99.90
1359;DHT22;673;48.098;14.422;2023-03-08T01:56:11;3.70;99.90
1359;DHT22;673;48.098;14.422;2023-03-08T01:58:39;3.70;99.90
1359;DHT22;673;48.098;14.422;2023-03-08T02:01:08;3.80;99.90
1359;DHT22;673;48.098;14.422;2023-03-08T02:03:35;3.80;99.90
1359;DHT22;673;48.098;14.422;2023-03-08T02:06:02;3.80;99.90
1359;DHT22;673;48.098;14.422;2023-03-08T02:08:30;3.80;99.90
1359;DHT22;673;48.098;14.422;2023-03-08T02:10:58;3.80;99.90
1359;DHT22;673;48.098;14.422;2023-03-08T02:13:27;3.70;99.90
1359;DHT22;673;48.098;14.422;2023-03-08T02:15:55;3.70;99.90
1359;DHT22;673;48.098;14.422;2023-03-08T02:18:25;3.60;99.90
1359;DHT22;673;48.098;14.422;2023-03-08T02:20:52;3.60;99.90
1359;DHT22;673;48.098;14.422;2023-03-08T02:23:22;3.60;99.90
1359;DHT22;673;48.098;14.422;2023-03-08T02:25:51;3.60;99.90
1359;DHT22;673;48.098;14.422;2023-03-08T02:28:19;3.60;99.90
1359;DHT22;673;48.098;14.422;2023-03-08T02:30:46;3.50;99.90
1359;DHT22;673;48.098;14.422;2023-03-08T02:33:13;3.50;99.90
1359;DHT22;673;48.098;14.422;2023-03-08T02:35:40;3.50;99.90
1359;DHT22;673;48.098;14.422;2023-03-08T02:38:09;3.40;99.90
1359;DHT22;673;48.098;14.422;2023-03-08T02:40:38;3.40;99.90
1359;DHT22;673;48.098;14.422;2023-03-08T02:43:06;3.30;99.90
1359;DHT22;673;48.098;14.422;2023-03-08T02:45:33;3.30;99.90
1359;DHT22;673;48.098;14.422;2023-03-08T02:48:01;3.30;99.90
1359;DHT22;673;48.098;14.422;2023-03-08T02:50:28;3.20;99.90
1359;DHT22;673;48.098;14.422;2023-03-08T02:52:56;3.20;99.90
1359;DHT22;673;48.098;14.422;2023-03-08T02:55:23;3.30;99.90
1359;DHT22;673;48.098;14.422;2023-03-08T02:57:51;3.40;99.90
1359;DHT22;673;48.098;14.422;2023-03-08T03:00:18;3.40;99.90
1359;DHT22;673;48.098;14.422;2023-03-08T03:02:45;3.50;99.90
1359;DHT22;673;48.098;14.422;2023-03-08T03:05:13;3.50;99.90
1359;DHT22;673;48.098;14.422;2023-03-08T03:07:41;3.60;99.90
1359;DHT22;673;48.098;14.422;2023-03-08T03:10:10;3.60;99.90
1359;DHT22;673;48.098;14.422;2023-03-08T03:12:37;3.70;99.90
1359;DHT22;673;48.098;14.422;2023-03-08T03:15:07;3.80;99.90
1359;DHT22;673;48.098;14.422;2023-03-08T03:17:35;3.80;99.90
1359;DHT22;673;48.098;14.422;2023-03-08T03:20:03;3.80;99.90
1359;DHT22;673;48.098;14.422;2023-03-08T03:22:32;3.80;99.90
1359;DHT22;673;48.098;14.422;2023-03-08T03:24:59;3.80;99.90
1359;DHT22;673;48.098;14.422;2023-03-08T03:27:26;3.80;99.90
1359;DHT22;673;48.098;14.422;2023-03-08T03:29:53;3.90;99.90
1359;DHT22;673;48.098;14.422;2023-03-08T03:32:21;3.80;99.90
1359;DHT22;673;48.098;14.422;2023-03-08T03:34:48;3.80;99.90
1359;DHT22;673;48.098;14.422;2023-03-08T03:37:15;3.80;99.90
1359;DHT22;673;48.098;14.422;2023-03-08T03:39:42;3.70;99.90
1359;DHT22;673;48.098;14.422;2023-03-08T03:42:09;3.70;99.90
1359;DHT22;673;48.098;14.422;2023-03-08T03:44:36;3.70;99.90
1359;DHT22;673;48.098;14.422;2023-03-08T03:47:04;3.70;99.90
1359;DHT22;673;48.098;14.422;2023-03-08T03:49:32;3.60;99.90
1359;DHT22;673;48.098;14.422;2023-03-08T03:51:59;3.60;99.90
1359;DHT22;673;48.098;14.422;2023-03-08T03:54:26;3.60;99.90
1359;DHT22;673;48.098;14.422;2023-03-08T03:56:53;3.60;99.90
1359;DHT22;673;48.098;14.422;2023-03-08T03:59:23;3.50;99.90
1359;DHT22;673;48.098;14.422;2023-03-08T04:01:50;3.40;99.90
1359;DHT22;673;48.098;14.422;2023-03-08T04:04:17;3.30;99.90
1359;DHT22;673;48.098;14.422;2023-03-08T04:06:45;3.30;99.90
1359;DHT22;673;48.098;14.422;2023-03-08T04:09:14;3.20;99.90
1359;DHT22;673;48.098;14.422;2023-03-08T04:11:41;3.30;99.90
1359;DHT22;673;48.098;14.422;2023-03-08T04:14:09;3.30;99.90
1359;DHT22;673;48.098;14.422;2023-03-08T04:16:38;3.30;99.90
1359;DHT22;673;48.098;14.422;2023-03-08T04:19:07;3.30;99.90
1359;DHT22;673;48.098;14.422;2023-03-08T04:21:35;3.30;99.90
1359;DHT22;673;48.098;14.422;2023-03-08T04:24:04;3.40;99.90
1359;DHT22;673;48.098;14.422;2023-03-08T04:26:31;3.40;99.90
1359;DHT22;673;48.098;14.422;2023-03-08T04:28:58;3.40;99.90
1359;DHT22;673;48.098;14.422;2023-03-08T04:31:30;3.50;99.90
1359;DHT22;673;48.098;14.422;2023-03-08T04:33:57;3.40;99.90
1359;DHT22;673;48.098;14.422;2023-03-08T04:36:24;3.40;99.90
1359;DHT22;673;48.098;14.422;2023-03-08T04:38:51;3.40;99.90
1359;DHT22;673;48.098;14.422;2023-03-08T04:41:19;3.20;99.90
1359;DHT22;673;48.098;14.422;2023-03-08T04:43:48;3.20;99.90
1359;DHT22;673;48.098;14.422;2023-03-08T04:46:16;3.10;99.90
1359;DHT22;673;48.098;14.422;2023-03-08T04:48:44;3.00;99.90
1359;DHT22;673;48.098;14.422;2023-03-08T04:51:12;2.90;99.90
1359;DHT22;673;48.098;14.422;2023-03-08T04:53:40;2.80;99.90
1359;DHT22;673;48.098;14.422;2023-03-08T04:56:10;2.70;99.90
1359;DHT22;673;48.098;14.422;2023-03-08T04:58:40;2.60;99.90
1359;DHT22;673;48.098;14.422;2023-03-08T05:01:09;2.60;99.90
1359;DHT22;673;48.098;14.422;2023-03-08T05:03:36;2.40;99.90
1359;DHT22;673;48.098;14.422;2023-03-08T05:06:03;2.40;99.90
1359;DHT22;673;48.098;14.422;2023-03-08T05:08:30;2.40;99.90
1359;DHT22;673;48.098;14.422;2023-03-08T05:10:59;2.30;99.90
1359;DHT22;673;48.098;14.422;2023-03-08T05:13:27;2.30;99.90
1359;DHT22;673;48.098;14.422;2023-03-08T05:15:56;2.10;99.90
1359;DHT22;673;48.098;14.422;2023-03-08T05:18:23;2.10;99.90
1359;DHT22;673;48.098;14.422;2023-03-08T05:20:54;2.00;99.90
1359;DHT22;673;48.098;14.422;2023-03-08T05:23:22;2.00;99.90
1359;DHT22;673;48.098;14.422;2023-03-08T05:25:53;2.00;99.90
1359;DHT22;673;48.098;14.422;2023-03-08T05:28:21;2.10;99.90
1359;DHT22;673;48.098;14.422;2023-03-08T05:30:49;2.00;99.90
1359;DHT22;673;48.098;14.422;2023-03-08T05:33:17;1.90;99.90
1359;DHT22;673;48.098;14.422;2023-03-08T05:35:52;2.00;99.90
1359;DHT22;673;48.098;14.422;2023-03-08T05:38:20;1.90;99.90
1359;DHT22;673;48.098;14.422;2023-03-08T05:40:47;2.00;99.90
1359;DHT22;673;48.098;14.422;2023-03-08T05:43:14;2.00;99.90
1359;DHT22;673;48.098;14.422;2023-03-08T05:45:41;2.00;99.90
1359;DHT22;673;48.098;14.422;2023-03-08T05:48:09;2.00;99.90
1359;DHT22;673;48.098;14.422;2023-03-08T05:50:37;2.10;99.90
1359;DHT22;673;48.098;14.422;2023-03-08T05:53:04;2.00;99.90
1359;DHT22;673;48.098;14.422;2023-03-08T05:55:31;2.10;99.90
1359;DHT22;673;48.098;14.422;2023-03-08T05:57:58;2.10;99.90
1359;DHT22;673;48.098;14.422;2023-03-08T06:00:25;2.20;99.90
1359;DHT22;673;48.098;14.422;2023-03-08T06:02:52;2.20;99.90
1359;DHT22;673;48.098;14.422;2023-03-08T06:05:19;2.30;99.90
1359;DHT22;673;48.098;14.422;2023-03-08T06:07:48;2.40;99.90
1359;DHT22;673;48.098;14.422;2023-03-08T06:10:15;2.50;99.90
1359;DHT22;673;48.098;14.422;2023-03-08T06:12:42;2.60;99.90
1359;DHT22;673;48.098;14.422;2023-03-08T06:15:10;2.60;99.90
1359;DHT22;673;48.098;14.422;2023-03-08T06:17:37;2.70;99.90
1359;DHT22;673;48.098;14.422;2023-03-08T06:20:05;2.70;99.90
1359;DHT22;673;48.098;14.422;2023-03-08T06:22:32;2.80;99.90
1359;DHT22;673;48.098;14.422;2023-03-08T06:25:01;2.90;99.90
1359;DHT22;673;48.098;14.422;2023-03-08T06:27:28;2.90;99.90
1359;DHT22;673;48.098;14.422;2023-03-08T06:29:55;2.90;99.90
1359;DHT22;673;48.098;14.422;2023-03-08T06:32:22;3.00;99.90
1359;DHT22;673;48.098;14.422;2023-03-08T06:34:49;3.10;99.90
1359;DHT22;673;48.098;14.422;2023-03-08T06:37:16;3.10;99.90
1359;DHT22;673;48.098;14.422;2023-03-08T06:39:43;3.20;99.90
1359;DHT22;673;48.098;14.422;2023-03-08T06:42:11;3.30;99.90
1359;DHT22;673;48.098;14.422;2023-03-08T06:44:38;3.40;99.90
1359;DHT22;673;48.098;14.422;2023-03-08T06:47:05;3.50;99.90
1359;DHT22;673;48.098;14.422;2023-03-08T06:49:33;3.70;99.90
1359;DHT22;673;48.098;14.422;2023-03-08T06:52:00;3.80;99.90
1359;DHT22;673;48.098;14.422;2023-03-08T06:54:27;4.10;99.90
1359;DHT22;673;48.098;14.422;2023-03-08T06:56:54;4.20;99.90
1359;DHT22;673;48.098;14.422;2023-03-08T06:59:22;4.50;99.90
1359;DHT22;673;48.098;14.422;2023-03-08T07:01:49;4.60;99.90
1359;DHT22;673;48.098;14.422;2023-03-08T07:04:16;4.80;99.90
1359;DHT22;673;48.098;14.422;2023-03-08T07:06:43;5.00;99.90
1359;DHT22;673;48.098;14.422;2023-03-08T07:09:10;5.20;99.90
1359;DHT22;673;48.098;14.422;2023-03-08T07:11:38;5.40;99.90
1359;DHT22;673;48.098;14.422;2023-03-08T07:14:05;5.60;99.90
1359;DHT22;673;48.098;14.422;2023-03-08T07:16:34;5.70;99.90
1359;DHT22;673;48.098;14.422;2023-03-08T07:19:01;5.70;99.80
1359;DHT22;673;48.098;14.422;2023-03-08T07:21:28;5.90;99.90
1359;DHT22;673;48.098;14.422;2023-03-08T07:23:55;6.10;99.90
1359;DHT22;673;48.098;14.422;2023-03-08T07:26:22;6.20;98.90
1359;DHT22;673;48.098;14.422;2023-03-08T07:28:49;6.40;98.30
1359;DHT22;673;48.098;14.422;2023-03-08T08:23:17;7.20;91.80
1359;DHT22;673;48.098;14.422;2023-03-08T08:25:44;8.10;90.20
1359;DHT22;673;48.098;14.422;2023-03-08T08:28:12;8.00;94.00
1359;DHT22;673;48.098;14.422;2023-03-08T08:30:40;7.80;94.40
1359;DHT22;673;48.098;14.422;2023-03-08T08:33:07;7.80;94.40
1359;DHT22;673;48.098;14.422;2023-03-08T08:35:33;7.90;94.10
1359;DHT22;673;48.098;14.422;2023-03-08T08:38:00;8.00;94.30
1359;DHT22;673;48.098;14.422;2023-03-08T08:40:29;8.10;92.20
1359;DHT22;673;48.098;14.422;2023-03-08T08:42:56;8.20;91.80
1359;DHT22;673;48.098;14.422;2023-03-08T08:45:23;8.10;91.50
1359;DHT22;673;48.098;14.422;2023-03-08T08:47:50;8.10;92.00
1359;DHT22;673;48.098;14.422;2023-03-08T08:50:17;8.00;91.80
1359;DHT22;673;48.098;14.422;2023-03-08T08:52:44;8.00;91.00
1359;DHT22;673;48.098;14.422;2023-03-08T08:55:10;8.30;90.20
1359;DHT22;673;48.098;14.422;2023-03-08T08:57:39;8.40;90.70
1359;DHT22;673;48.098;14.422;2023-03-08T09:00:07;8.70;89.40
1359;DHT22;673;48.098;14.422;2023-03-08T09:02:35;9.00;88.10
1359;DHT22;673;48.098;14.422;2023-03-08T09:05:02;9.00;85.00
1359;DHT22;673;48.098;14.422;2023-03-08T09:07:29;8.70;88.40
1359;DHT22;673;48.098;14.422;2023-03-08T09:09:56;8.70;87.80
1359;DHT22;673;48.098;14.422;2023-03-08T09:12:25;8.60;86.40
1359;DHT22;673;48.098;14.422;2023-03-08T09:14:53;8.50;87.50
1359;DHT22;673;48.098;14.422;2023-03-08T09:17:20;8.50;86.40
1359;DHT22;673;48.098;14.422;2023-03-08T09:19:47;8.30;89.60
1359;DHT22;673;48.098;14.422;2023-03-08T09:22:14;8.20;92.60
1359;DHT22;673;48.098;14.422;2023-03-08T09:24:41;7.80;92.90
1359;DHT22;673;48.098;14.422;2023-03-08T09:27:10;7.80;92.80
1359;DHT22;673;48.098;14.422;2023-03-08T09:29:37;7.80;92.70
1359;DHT22;673;48.098;14.422;2023-03-08T09:32:06;7.90;93.80
1359;DHT22;673;48.098;14.422;2023-03-08T09:34:33;8.00;93.50
1359;DHT22;673;48.098;14.422;2023-03-08T09:37:00;8.10;94.90
1359;DHT22;673;48.098;14.422;2023-03-08T09:39:27;8.10;92.60
1359;DHT22;673;48.098;14.422;2023-03-08T09:41:56;8.00;93.40
1359;DHT22;673;48.098;14.422;2023-03-08T09:44:42;8.20;92.90
1359;DHT22;673;48.098;14.422;2023-03-08T09:47:24;8.50;93.60
1359;DHT22;673;48.098;14.422;2023-03-08T09:50:03;8.50;93.50
1359;DHT22;673;48.098;14.422;2023-03-08T09:52:37;8.40;92.60
1359;DHT22;673;48.098;14.422;2023-03-08T09:55:12;8.40;92.20
1359;DHT22;673;48.098;14.422;2023-03-08T09:57:46;8.40;92.70
1359;DHT22;673;48.098;14.422;2023-03-08T10:00:19;8.20;93.00
1359;DHT22;673;48.098;14.422;2023-03-08T10:02:55;8.30;93.90
1359;DHT22;673;48.098;14.422;2023-03-08T10:05:31;8.60;93.40
1359;DHT22;673;48.098;14.422;2023-03-08T10:08:03;8.70;92.70
1359;DHT22;673;48.098;14.422;2023-03-08T10:10:38;8.90;92.50
1359;DHT22;673;48.098;14.422;2023-03-08T10:13:28;9.20;93.40
1359;DHT22;673;48.098;14.422;2023-03-08T10:18:44;9.10;91.80
1359;DHT22;673;48.098;14.422;2023-03-08T10:21:15;9.10;90.40
1359;DHT22;673;48.098;14.422;2023-03-08T10:23:44;9.00;92.90
1359;DHT22;673;48.098;14.422;2023-03-08T10:26:12;9.30;91.50
1359;DHT22;673;48.098;14.422;2023-03-08T10:28:40;8.90;90.00
1359;DHT22;673;48.098;14.422;2023-03-08T10:31:26;9.10;91.00
1359;DHT22;673;48.098;14.422;2023-03-08T10:34:00;9.30;91.70
1359;DHT22;673;48.098;14.422;2023-03-08T10:36:28;9.40;90.30
1359;DHT22;673;48.098;14.422;2023-03-08T10:38:58;9.80;88.60
1359;DHT22;673;48.098;14.422;2023-03-08T10:41:26;9.50;87.00
1359;DHT22;673;48.098;14.422;2023-03-08T10:43:57;9.70;90.20
1359;DHT22;673;48.098;14.422;2023-03-08T10:46:27;9.70;87.30
1359;DHT22;673;48.098;14.422;2023-03-08T10:49:07;9.80;83.40
1359;DHT22;673;48.098;14.422;2023-03-08T10:51:34;9.90;86.60
1359;DHT22;673;48.098;14.422;2023-03-08T10:54:03;10.10;87.30
1359;DHT22;673;48.098;14.422;2023-03-08T10:56:35;10.50;83.10
1359;DHT22;673;48.098;14.422;2023-03-08T10:59:03;10.40;83.40
1359;DHT22;673;48.098;14.422;2023-03-08T11:01:32;11.00;82.40
1359;DHT22;673;48.098;14.422;2023-03-08T11:04:01;11.00;85.00
1359;DHT22;673;48.098;14.422;2023-03-08T11:06:31;10.70;83.10
1359;DHT22;673;48.098;14.422;2023-03-08T11:09:01;10.30;81.00
1359;DHT22;673;48.098;14.422;2023-03-08T11:11:39;10.10;84.20
1359;DHT22;673;48.098;14.422;2023-03-08T11:14:09;10.00;81.80
1359;DHT22;673;48.098;14.422;2023-03-08T11:16:44;10.40;84.60
1359;DHT22;673;48.098;14.422;2023-03-08T11:19:29;10.60;86.20
1359;DHT22;673;48.098;14.422;2023-03-08T11:22:04;10.90;83.40
1359;DHT22;673;48.098;14.422;2023-03-08T11:24:51;10.60;80.80
1359;DHT22;673;48.098;14.422;2023-03-08T11:27:31;10.80;82.20
1359;DHT22;673;48.098;14.422;2023-03-08T11:30:10;10.30;80.30
1359;DHT22;673;48.098;14.422;2023-03-08T11:32:48;10.10;86.10
1359;DHT22;673;48.098;14.422;2023-03-08T11:35:23;10.60;84.30
1359;DHT22;673;48.098;14.422;2023-03-08T11:37:58;10.40;83.00
1359;DHT22;673;48.098;14.422;2023-03-08T11:40:32;10.60;86.90
1359;DHT22;673;48.098;14.422;2023-03-08T11:43:12;11.00;85.90
1359;DHT22;673;48.098;14.422;2023-03-08T11:45:46;10.50;81.20
1359;DHT22;673;48.098;14.422;2023-03-08T11:51:13;10.40;82.90
1359;DHT22;673;48.098;14.422;2023-03-08T11:53:53;10.70;83.00
1359;DHT22;673;48.098;14.422;2023-03-08T11:56:49;10.60;82.60
1359;DHT22;673;48.098;14.422;2023-03-08T11:59:21;10.50;83.30
1359;DHT22;673;48.098;14.422;2023-03-08T12:01:53;10.30;81.20
1359;DHT22;673;48.098;14.422;2023-03-08T12:04:26;10.20;83.60
1359;DHT22;673;48.098;14.422;2023-03-08T12:06:59;10.20;82.70
1359;DHT22;673;48.098;14.422;2023-03-08T12:09:33;10.00;82.40
1359;DHT22;673;48.098;14.422;2023-03-08T12:12:07;10.00;83.60
1359;DHT22;673;48.098;14.422;2023-03-08T12:14:46;10.00;85.20
1359;DHT22;673;48.098;14.422;2023-03-08T12:17:19;10.20;85.10
1359;DHT22;673;48.098;14.422;2023-03-08T12:19:48;10.10;81.00
1359;DHT22;673;48.098;14.422;2023-03-08T12:22:34;9.80;84.10
1359;DHT22;673;48.098;14.422;2023-03-08T12:25:11;9.60;83.40
1359;DHT22;673;48.098;14.422;2023-03-08T12:27:42;9.70;83.60
1359;DHT22;673;48.098;14.422;2023-03-08T12:30:18;9.80;86.20
1359;DHT22;673;48.098;14.422;2023-03-08T12:32:48;9.80;85.20
1359;DHT22;673;48.098;14.422;2023-03-08T12:35:29;9.80;86.70
1359;DHT22;673;48.098;14.422;2023-03-08T12:37:58;9.60;85.10
1359;DHT22;673;48.098;14.422;2023-03-08T12:40:29;9.40;87.60
1359;DHT22;673;48.098;14.422;2023-03-08T12:43:05;9.40;88.40
1359;DHT22;673;48.098;14.422;2023-03-08T12:45:32;9.20;87.00
1359;DHT22;673;48.098;14.422;2023-03-08T12:48:08;9.10;85.90
1359;DHT22;673;48.098;14.422;2023-03-08T12:50:39;9.30;87.70
1359;DHT22;673;48.098;14.422;2023-03-08T12:53:23;9.30;89.60
1359;DHT22;673;48.098;14.422;2023-03-08T12:56:23;9.30;87.20
1359;DHT22;673;48.098;14.422;2023-03-08T12:58:53;9.40;86.20
1359;DHT22;673;48.098;14.422;2023-03-08T13:01:30;9.50;85.40
1359;DHT22;673;48.098;14.422;2023-03-08T13:03:58;9.60;86.60
1359;DHT22;673;48.098;14.422;2023-03-08T13:06:51;9.40;87.30
1359;DHT22;673;48.098;14.422;2023-03-08T13:09:25;9.30;87.60
1359;DHT22;673;48.098;14.422;2023-03-08T13:11:59;9.30;88.50
1359;DHT22;673;48.098;14.422;2023-03-08T13:14:38;9.40;89.20
1359;DHT22;673;48.098;14.422;2023-03-08T13:17:33;9.40;90.40
1359;DHT22;673;48.098;14.422;2023-03-08T13:20:03;9.40;86.30
1359;DHT22;673;48.098;14.422;2023-03-08T13:22:39;9.40;90.20
1359;DHT22;673;48.098;14.422;2023-03-08T13:25:16;9.50;90.10
1359;DHT22;673;48.098;14.422;2023-03-08T13:27:51;9.60;88.50
1359;DHT22;673;48.098;14.422;2023-03-08T13:30:23;9.70;90.10
1359;DHT22;673;48.098;14.422;2023-03-08T13:32:51;9.90;88.20
1359;DHT22;673;48.098;14.422;2023-03-08T13:35:18;9.80;86.90
1359;DHT22;673;48.098;14.422;2023-03-08T13:37:51;9.90;88.70
1359;DHT22;673;48.098;14.422;2023-03-08T13:40:20;10.00;87.60
1359;DHT22;673;48.098;14.422;2023-03-08T13:42:56;10.10;87.00
1359;DHT22;673;48.098;14.422;2023-03-08T13:45:24;10.20;85.60
1359;DHT22;673;48.098;14.422;2023-03-08T13:47:52;10.40;86.00
1359;DHT22;673;48.098;14.422;2023-03-08T13:50:22;10.40;84.20
1359;DHT22;673;48.098;14.422;2023-03-08T13:52:51;10.50;84.30
1359;DHT22;673;48.098;14.422;2023-03-08T13:55:31;10.80;84.30
1359;DHT22;673;48.098;14.422;2023-03-08T13:58:01;10.80;84.50
1359;DHT22;673;48.098;14.422;2023-03-08T14:00:30;10.80;83.30
1359;DHT22;673;48.098;14.422;2023-03-08T14:02:58;10.70;83.30
1359;DHT22;673;48.098;14.422;2023-03-08T14:05:27;10.60;83.10
1359;DHT22;673;48.098;14.422;2023-03-08T14:07:56;10.40;82.30
1359;DHT22;673;48.098;14.422;2023-03-08T14:10:27;10.30;82.30
1359;DHT22;673;48.098;14.422;2023-03-08T14:12:55;10.10;83.60
1359;DHT22;673;48.098;14.422;2023-03-08T14:15:25;10.20;84.70
1359;DHT22;673;48.098;14.422;2023-03-08T14:17:52;10.20;84.80
1359;DHT22;673;48.098;14.422;2023-03-08T14:20:21;10.20;83.40
1359;DHT22;673;48.098;14.422;2023-03-08T14:22:50;10.10;82.70
1359;DHT22;673;48.098;14.422;2023-03-08T14:25:25;10.10;87.60
1359;DHT22;673;48.098;14.422;2023-03-08T14:27:53;10.10;86.40
1359;DHT22;673;48.098;14.422;2023-03-08T14:30:22;10.00;86.00
1359;DHT22;673;48.098;14.422;2023-03-08T14:33:02;9.80;90.30
1359;DHT22;673;48.098;14.422;2023-03-08T14:35:33;9.60;90.20
1359;DHT22;673;48.098;14.422;2023-03-08T14:38:01;9.50;92.10
1359;DHT22;673;48.098;14.422;2023-03-08T14:40:31;9.60;92.50
1359;DHT22;673;48.098;14.422;2023-03-08T14:42:59;9.70;92.00
1359;DHT22;673;48.098;14.422;2023-03-08T14:45:32;9.60;90.90
1359;DHT22;673;48.098;14.422;2023-03-08T14:48:15;9.60;92.00
1359;DHT22;673;48.098;14.422;2023-03-08T14:50:52;9.60;92.10
1359;DHT22;673;48.098;14.422;2023-03-08T14:53:29;9.50;93.40
1359;DHT22;673;48.098;14.422;2023-03-08T14:55:57;9.40;93.20
1359;DHT22;673;48.098;14.422;2023-03-08T14:58:26;9.40;91.90
1359;DHT22;673;48.098;14.422;2023-03-08T15:00:55;9.50;92.30
1359;DHT22;673;48.098;14.422;2023-03-08T15:03:24;9.50;92.60
1359;DHT22;673;48.098;14.422;2023-03-08T15:05:52;9.40;92.40
1359;DHT22;673;48.098;14.422;2023-03-08T15:08:19;9.40;93.10
1359;DHT22;673;48.098;14.422;2023-03-08T15:10:48;9.20;93.30
1359;DHT22;673;48.098;14.422;2023-03-08T15:13:17;9.30;94.00
1359;DHT22;673;48.098;14.422;2023-03-08T15:15:45;9.40;93.50
1359;DHT22;673;48.098;14.422;2023-03-08T15:18:12;9.50;93.50
1359;DHT22;673;48.098;14.422;2023-03-08T15:20:43;9.70;92.70
1359;DHT22;673;48.098;14.422;2023-03-08T15:23:15;9.90;92.70
1359;DHT22;673;48.098;14.422;2023-03-08T15:25:43;9.90;92.50
1359;DHT22;673;48.098;14.422;2023-03-08T15:28:13;9.80;92.90
1359;DHT22;673;48.098;14.422;2023-03-08T15:30:40;9.80;92.50
1359;DHT22;673;48.098;14.422;2023-03-08T15:33:08;9.90;92.70
1359;DHT22;673;48.098;14.422;2023-03-08T15:35:35;9.80;92.60
1359;DHT22;673;48.098;14.422;2023-03-08T15:38:04;9.80;92.70
1359;DHT22;673;48.098;14.422;2023-03-08T15:40:32;9.80;93.50
1359;DHT22;673;48.098;14.422;2023-03-08T15:42:59;9.70;93.80
1359;DHT22;673;48.098;14.422;2023-03-08T15:45:26;9.60;94.40
1359;DHT22;673;48.098;14.422;2023-03-08T15:47:57;9.70;94.10
1359;DHT22;673;48.098;14.422;2023-03-08T15:50:25;9.70;93.90
1359;DHT22;673;48.098;14.422;2023-03-08T15:52:52;9.60;93.60
1359;DHT22;673;48.098;14.422;2023-03-08T15:55:22;9.60;93.90
1359;DHT22;673;48.098;14.422;2023-03-08T15:57:50;9.50;93.80
1359;DHT22;673;48.098;14.422;2023-03-08T16:00:19;9.30;94.20
1359;DHT22;673;48.098;14.422;2023-03-08T16:02:46;9.30;94.40
1359;DHT22;673;48.098;14.422;2023-03-08T16:05:14;9.30;94.70
1359;DHT22;673;48.098;14.422;2023-03-08T16:07:44;9.40;94.70
1359;DHT22;673;48.098;14.422;2023-03-08T16:10:14;9.40;93.90
1359;DHT22;673;48.098;14.422;2023-03-08T16:12:42;9.30;94.20
1359;DHT22;673;48.098;14.422;2023-03-08T16:15:09;9.40;94.40
1359;DHT22;673;48.098;14.422;2023-03-08T16:17:37;9.30;94.90
1359;DHT22;673;48.098;14.422;2023-03-08T16:20:04;9.30;95.60
1359;DHT22;673;48.098;14.422;2023-03-08T16:22:31;9.30;95.70
1359;DHT22;673;48.098;14.422;2023-03-08T16:24:58;9.20;95.70
1359;DHT22;673;48.098;14.422;2023-03-08T16:27:27;9.20;95.40
1359;DHT22;673;48.098;14.422;2023-03-08T16:29:55;9.30;96.40
1359;DHT22;673;48.098;14.422;2023-03-08T16:32:22;9.30;96.10
1359;DHT22;673;48.098;14.422;2023-03-08T16:34:49;9.20;96.30
1359;DHT22;673;48.098;14.422;2023-03-08T16:37:17;9.20;96.80
1359;DHT22;673;48.098;14.422;2023-03-08T16:39:44;9.10;97.50
1359;DHT22;673;48.098;14.422;2023-03-08T16:42:12;9.10;97.40
1359;DHT22;673;48.098;14.422;2023-03-08T16:44:39;9.10;99.10
1359;DHT22;673;48.098;14.422;2023-03-08T16:47:08;9.00;99.10
1359;DHT22;673;48.098;14.422;2023-03-08T16:49:35;8.90;98.60
1359;DHT22;673;48.098;14.422;2023-03-08T16:52:02;8.80;98.60
1359;DHT22;673;48.098;14.422;2023-03-08T16:54:30;8.70;98.90
1359;DHT22;673;48.098;14.422;2023-03-08T16:56:57;8.70;99.30
1359;DHT22;673;48.098;14.422;2023-03-08T16:59:24;8.70;98.80
1359;DHT22;673;48.098;14.422;2023-03-08T17:01:51;8.60;98.90
1359;DHT22;673;48.098;14.422;2023-03-08T17:04:20;8.60;98.80
1359;DHT22;673;48.098;14.422;2023-03-08T17:06:48;8.50;98.70
1359;DHT22;673;48.098;14.422;2023-03-08T17:09:15;8.50;98.90
1359;DHT22;673;48.098;14.422;2023-03-08T17:11:42;8.40;99.10
1359;DHT22;673;48.098;14.422;2023-03-08T17:14:12;8.40;99.10
1359;DHT22;673;48.098;14.422;2023-03-08T17:16:39;8.40;99.30
1359;DHT22;673;48.098;14.422;2023-03-08T17:19:09;8.40;99.40
1359;DHT22;673;48.098;14.422;2023-03-08T17:21:38;8.30;99.00
1359;DHT22;673;48.098;14.422;2023-03-08T17:24:06;8.30;98.80
1359;DHT22;673;48.098;14.422;2023-03-08T17:26:34;8.40;98.40
1359;DHT22;673;48.098;14.422;2023-03-08T17:29:01;8.30;98.40